createdAt,value
2022-08-05T00:01:56.295Z,44.83
2022-08-05T00:04:35.882Z,45.20
2022-08-05T00:07:27.123Z,44.57
2022-08-05T00:09:50.842Z,45.14
2022-08-05T00:12:18.326Z,45.58
2022-08-05T00:14:46.182Z,45.41
2022-08-05T00:17:20.311Z,45.00
2022-08-05T00:20:02.526Z,45.01
2022-08-05T00:22:31.056Z,45.62
2022-08-05T00:25:01.665Z,45.69
2022-08-05T00:27:35.773Z,46.92
2022-08-05T00:30:11.322Z,47.40
2022-08-05T00:32:39.103Z,48.30
2022-08-05T00:35:11.445Z,48.85
2022-08-05T00:37:52.580Z,49.32
2022-08-05T00:40:26.622Z,49.58
2022-08-05T00:43:02.005Z,49.21
2022-08-05T00:45:42.891Z,49.81
2022-08-05T00:48:31.188Z,49.47
2022-08-05T00:50:58.817Z,49.04
2022-08-05T00:53:45.344Z,49.80
2022-08-05T00:56:22.724Z,50.02
2022-08-05T00:58:50.382Z,50.35
2022-08-05T01:01:41.966Z,49.62
2022-08-05T01:04:14.247Z,49.35
2022-08-05T01:06:46.676Z,49.21
2022-08-05T01:09:17.371Z,48.95
2022-08-05T01:11:54.345Z,49.37
2022-08-05T01:14:35.570Z,50.61
2022-08-05T01:17:11.627Z,50.35
2022-08-05T01:20:22.402Z,51.31
2022-08-05T01:23:59.311Z,52.75
2022-08-05T01:27:01.044Z,50.92
2022-08-05T01:29:54.619Z,50.48
2022-08-05T01:32:33.747Z,52.14
2022-08-05T01:35:50.809Z,51.37
2022-08-05T01:38:06.973Z,52.03
2022-08-05T01:40:38.094Z,52.38
2022-08-05T01:43:09.834Z,53.04
2022-08-05T01:45:56.177Z,53.15
2022-08-05T01:48:27.825Z,53.67
2022-08-05T01:50:57.760Z,53.06
2022-08-05T01:53:54.900Z,52.97
2022-08-05T01:58:18.883Z,52.53
2022-08-05T01:59:18.326Z,53.06
2022-08-05T02:01:55.565Z,51.60
2022-08-05T02:04:30.162Z,50.33
2022-08-05T02:06:59.144Z,48.87
2022-08-05T02:09:27.077Z,48.21
2022-08-05T02:12:15.835Z,45.75
2022-08-05T02:15:06.143Z,45.01
2022-08-05T02:18:27.948Z,43.93
2022-08-05T02:21:03.687Z,43.18
2022-08-05T02:23:41.515Z,42.49
2022-08-05T02:27:30.237Z,41.82
2022-08-05T02:30:13.342Z,42.18
2022-08-05T02:33:57.798Z,41.53
2022-08-05T02:36:31.418Z,41.27
2022-08-05T02:39:04.032Z,40.80
2022-08-05T02:41:57.521Z,40.91
2022-08-05T02:45:52.484Z,40.60
2022-08-05T02:49:40.404Z,40.56
2022-08-05T02:53:24.061Z,40.30
2022-08-05T02:56:00.351Z,41.76
2022-08-05T02:59:50.417Z,42.90
2022-08-05T03:04:02.666Z,43.22
2022-08-05T03:06:55.388Z,43.07
2022-08-05T03:09:15.725Z,42.94
2022-08-05T03:11:54.671Z,43.10
2022-08-05T03:15:39.378Z,42.64
2022-08-05T03:19:34.526Z,45.98
2022-08-05T03:23:19.072Z,46.59
2022-08-05T03:27:07.080Z,46.67
2022-08-05T03:30:08.593Z,46.68
2022-08-05T03:32:38.970Z,46.20
2022-08-05T03:35:08.903Z,45.82
2022-08-05T03:37:44.763Z,48.06
2022-08-05T03:40:14.486Z,47.14
2022-08-05T03:42:52.393Z,46.95
2022-08-05T03:45:21.735Z,47.80
2022-08-05T03:47:51.627Z,48.25
2022-08-05T03:50:53.807Z,47.73
2022-08-05T03:55:49.906Z,46.21
2022-08-05T03:56:43.914Z,47.38
2022-08-05T03:59:54.431Z,47.94
2022-08-05T04:02:39.140Z,48.15
2022-08-05T04:05:17.081Z,47.53
2022-08-05T04:07:58.593Z,47.34
2022-08-05T04:10:33.245Z,48.05
2022-08-05T04:13:07.974Z,49.72
2022-08-05T04:15:36.759Z,50.90
2022-08-05T04:18:09.319Z,50.28
2022-08-05T04:20:38.131Z,49.95
2022-08-05T04:23:12.273Z,49.53
2022-08-05T04:25:57.247Z,49.97
2022-08-05T04:28:31.743Z,49.61
2022-08-05T04:31:01.277Z,49.80
2022-08-05T04:34:17.902Z,49.96
2022-08-05T04:36:45.577Z,50.52
2022-08-05T04:39:07.720Z,50.21
2022-08-05T04:41:37.750Z,50.05
2022-08-05T04:44:08.820Z,49.14
2022-08-05T04:46:40.935Z,48.39
2022-08-05T04:49:15.023Z,46.96
2022-08-05T04:51:44.488Z,46.81
2022-08-05T04:54:12.331Z,45.24
2022-08-05T04:56:40.253Z,44.10
2022-08-05T04:59:13.819Z,43.39
2022-08-05T05:02:35.527Z,43.29
2022-08-05T05:04:43.835Z,43.52
2022-08-05T05:07:17.707Z,44.31
2022-08-05T05:09:45.677Z,45.02
2022-08-05T05:12:13.331Z,45.63
2022-08-05T05:15:13.777Z,44.97
2022-08-05T05:17:56.585Z,42.78
2022-08-05T05:20:28.147Z,40.49
2022-08-05T05:22:59.254Z,37.43
2022-08-05T05:25:32.635Z,34.85
2022-08-05T05:28:12.242Z,32.00
2022-08-05T05:30:42.938Z,30.73
2022-08-05T05:33:17.656Z,29.06
2022-08-05T05:35:50.892Z,27.89
2022-08-05T05:38:22.758Z,26.42
2022-08-05T05:40:57.022Z,25.44
2022-08-05T05:43:56.791Z,24.26
2022-08-05T05:46:17.213Z,23.31
2022-08-05T05:48:48.676Z,22.35
2022-08-05T05:51:25.713Z,21.21
2022-08-05T05:53:59.588Z,21.07
2022-08-05T05:56:34.524Z,20.60
2022-08-05T05:59:07.706Z,20.60
2022-08-05T06:01:57.098Z,20.49
2022-08-05T06:04:25.917Z,19.48
2022-08-05T06:06:53.848Z,20.25
2022-08-05T06:09:25.844Z,18.96
2022-08-05T06:12:12.165Z,17.88
2022-08-05T06:14:48.093Z,17.60
2022-08-05T06:17:22.282Z,17.70
2022-08-05T06:19:56.712Z,17.68
2022-08-05T06:22:33.746Z,18.15
2022-08-05T06:25:25.105Z,17.72
2022-08-05T06:28:12.351Z,16.53
2022-08-05T06:30:46.481Z,16.24
2022-08-05T06:33:19.112Z,16.21
2022-08-05T06:36:07.159Z,15.04
2022-08-05T06:38:36.845Z,15.54
2022-08-05T06:41:07.890Z,15.82
2022-08-05T06:43:59.228Z,15.43
2022-08-05T06:46:29.724Z,15.15
2022-08-05T06:49:01.097Z,14.84
2022-08-05T06:51:32.029Z,14.10
2022-08-05T06:54:04.810Z,13.50
2022-08-05T06:56:34.296Z,13.16
2022-08-05T06:59:08.513Z,13.31
2022-08-05T07:01:43.463Z,13.30
2022-08-05T07:04:14.088Z,12.88
2022-08-05T07:06:42.192Z,12.83
2022-08-05T07:09:09.446Z,12.11
2022-08-05T07:11:39.881Z,11.96
2022-08-05T07:14:32.169Z,11.74
2022-08-05T07:18:00.823Z,11.45
2022-08-05T07:22:44.730Z,11.42
2022-08-05T07:25:53.919Z,11.24
2022-08-05T07:28:05.917Z,11.53
2022-08-05T07:30:39.699Z,12.11
2022-08-05T07:33:16.216Z,13.28
2022-08-05T07:36:03.942Z,13.67
2022-08-05T07:38:43.510Z,13.37
2022-08-05T07:42:08.235Z,13.25
2022-08-05T07:44:14.344Z,12.68
2022-08-05T07:46:49.708Z,12.72
2022-08-05T07:49:20.580Z,11.59
2022-08-05T07:51:54.563Z,11.74
2022-08-05T07:54:33.396Z,11.40
2022-08-05T07:57:18.171Z,11.37
2022-08-05T07:59:53.900Z,10.73
2022-08-05T08:02:31.307Z,10.02
2022-08-05T08:05:17.454Z,9.77
2022-08-05T08:07:59.566Z,9.18
2022-08-05T08:10:31.296Z,8.70
2022-08-05T08:13:01.644Z,8.67
2022-08-05T08:16:33.988Z,9.04
2022-08-05T08:18:20.804Z,8.77
2022-08-05T08:21:02.023Z,8.41
2022-08-05T08:24:01.409Z,8.52
2022-08-05T08:26:29.387Z,9.28
2022-08-05T08:29:02.255Z,10.17
2022-08-05T08:31:49.605Z,9.55
2022-08-05T08:34:30.867Z,8.88
2022-08-05T08:37:05.202Z,9.35
2022-08-05T08:39:37.228Z,9.32
2022-08-05T08:42:34.552Z,8.88
2022-08-05T08:45:19.346Z,8.71
2022-08-05T08:48:07.750Z,8.83
2022-08-05T08:51:07.725Z,8.30
2022-08-05T08:53:44.267Z,9.03
2022-08-05T08:56:12.833Z,9.69
2022-08-05T08:58:47.591Z,9.27
2022-08-05T09:01:19.850Z,8.78
2022-08-05T09:03:57.285Z,7.55
2022-08-05T09:06:30.718Z,7.93
2022-08-05T09:09:02.240Z,7.68
2022-08-05T09:11:51.091Z,7.52
2022-08-05T09:14:57.811Z,7.22
2022-08-05T09:17:41.392Z,7.03
2022-08-05T09:20:05.327Z,7.20
2022-08-05T09:23:18.940Z,7.03
2022-08-05T09:26:22.181Z,7.22
2022-08-05T09:28:49.869Z,8.67
2022-08-05T09:31:22.522Z,9.52
2022-08-05T09:34:11.112Z,9.00
2022-08-05T09:36:54.916Z,8.08
2022-08-05T09:39:41.187Z,8.08
2022-08-05T09:42:28.546Z,8.70
2022-08-05T09:46:06.671Z,7.97
2022-08-05T09:48:30.978Z,7.38
2022-08-05T09:51:04.073Z,7.42
2022-08-05T09:53:59.321Z,7.81
2022-08-05T09:56:40.421Z,7.51
2022-08-05T09:59:24.240Z,7.89
2022-08-05T10:01:58.535Z,8.03
2022-08-05T10:04:39.588Z,9.32
2022-08-05T10:07:20.051Z,10.41
2022-08-05T10:10:04.283Z,11.04
2022-08-05T10:13:01.000Z,9.77
2022-08-05T10:15:41.414Z,9.30
2022-08-05T10:18:20.320Z,9.36
2022-08-05T10:20:52.919Z,9.08
2022-08-05T10:23:56.522Z,9.46
2022-08-05T10:26:24.222Z,8.37
2022-08-05T10:29:10.742Z,9.13
2022-08-05T10:32:51.664Z,8.64
2022-08-05T10:35:33.782Z,8.12
2022-08-05T10:38:11.853Z,8.00
2022-08-05T10:41:14.153Z,8.25
2022-08-05T10:44:06.779Z,7.38
2022-08-05T10:46:59.754Z,6.82
2022-08-05T10:49:33.430Z,8.45
2022-08-05T10:53:02.691Z,7.79
2022-08-05T10:55:38.434Z,7.41
2022-08-05T10:58:20.617Z,7.42
2022-08-05T11:00:48.451Z,8.32
2022-08-05T11:03:26.609Z,8.21
2022-08-05T11:06:15.429Z,7.63
2022-08-05T11:09:32.202Z,6.92
2022-08-05T11:12:37.233Z,7.27
2022-08-05T11:15:20.734Z,7.42
2022-08-05T11:17:59.071Z,7.23
2022-08-05T11:20:53.209Z,7.91
2022-08-05T11:24:05.471Z,7.58
2022-08-05T11:26:38.683Z,8.32
2022-08-05T11:29:12.962Z,8.51
2022-08-05T11:31:57.571Z,7.96
2022-08-05T11:34:51.547Z,6.80
2022-08-05T11:38:29.002Z,7.78
2022-08-05T11:42:01.357Z,8.11
2022-08-05T11:46:14.979Z,9.22
2022-08-05T11:49:49.859Z,9.47
2022-08-05T11:52:31.191Z,8.91
2022-08-05T11:56:14.235Z,9.97
2022-08-05T11:59:56.994Z,9.97
2022-08-05T12:03:44.937Z,10.10
2022-08-05T12:06:29.469Z,9.62
2022-08-05T12:08:59.474Z,9.76
2022-08-05T12:11:39.734Z,9.73
2022-08-05T12:15:38.012Z,9.86
2022-08-05T12:20:26.678Z,9.41
2022-08-05T12:23:56.311Z,10.47
2022-08-05T12:26:30.176Z,10.31
2022-08-05T12:28:59.262Z,10.49
2022-08-05T12:31:32.706Z,10.25
2022-08-05T12:35:36.913Z,11.09
2022-08-05T12:39:23.538Z,10.66
2022-08-05T12:42:00.117Z,10.67
2022-08-05T12:45:09.891Z,10.69
2022-08-05T12:47:43.545Z,10.00
2022-08-05T12:50:30.984Z,10.38
2022-08-05T12:52:59.661Z,10.14
2022-08-05T12:55:32.801Z,9.29
2022-08-05T12:58:48.267Z,10.45
2022-08-05T13:02:00.627Z,9.81
2022-08-05T13:03:42.008Z,9.91
2022-08-05T13:06:19.925Z,10.38
2022-08-05T13:08:52.333Z,10.16
2022-08-05T13:12:01.517Z,10.61
2022-08-05T13:14:24.850Z,11.64
2022-08-05T13:17:16.161Z,11.85
2022-08-05T13:20:23.232Z,12.34
2022-08-05T13:23:18.293Z,12.75
2022-08-05T13:25:59.445Z,12.76
2022-08-05T13:28:32.402Z,14.09
2022-08-05T13:31:00.303Z,13.18
2022-08-05T13:34:24.394Z,13.20
2022-08-05T13:36:26.045Z,13.50
2022-08-05T13:38:54.154Z,13.47
2022-08-05T13:41:22.498Z,13.21
2022-08-05T13:43:54.790Z,13.34
2022-08-05T13:46:43.705Z,13.94
2022-08-05T13:49:15.330Z,14.33
2022-08-05T13:51:46.050Z,14.21
2022-08-05T13:54:17.017Z,14.28
2022-08-05T13:56:50.797Z,13.71
2022-08-05T13:59:25.347Z,13.60
2022-08-05T14:03:12.906Z,13.99
2022-08-05T14:06:58.624Z,14.19
2022-08-05T14:10:59.774Z,14.54
2022-08-05T14:14:46.681Z,15.83
2022-08-05T14:18:30.453Z,17.00
2022-08-05T14:21:00.224Z,17.02
2022-08-05T14:23:47.303Z,17.56
2022-08-05T14:27:30.325Z,17.70
2022-08-05T14:31:17.539Z,17.92
2022-08-05T14:35:20.725Z,18.73
2022-08-05T14:39:10.977Z,19.19
2022-08-05T14:41:38.496Z,19.47
2022-08-05T14:44:20.180Z,20.24
2022-08-05T14:46:48.190Z,20.42
2022-08-05T14:49:17.086Z,21.10
2022-08-05T14:51:44.460Z,21.51
2022-08-05T14:54:29.900Z,21.37
2022-08-05T14:57:01.067Z,21.81
2022-08-05T14:59:35.415Z,21.53
2022-08-05T15:02:14.819Z,21.70
2022-08-05T15:04:43.765Z,21.60
2022-08-05T15:07:12.213Z,22.11
2022-08-05T15:10:01.409Z,21.84
2022-08-05T15:12:51.287Z,21.73
2022-08-05T15:15:18.334Z,22.65
2022-08-05T15:18:06.082Z,22.84
2022-08-05T15:20:33.860Z,23.14
2022-08-05T15:23:07.023Z,22.91
2022-08-05T15:25:51.102Z,22.81
2022-08-05T15:28:27.284Z,22.81
2022-08-05T15:30:56.539Z,23.52
2022-08-05T15:34:04.881Z,24.15
2022-08-05T15:36:17.707Z,24.75
2022-08-05T15:40:41.166Z,26.47
2022-08-05T15:41:58.326Z,27.69
2022-08-05T15:44:30.849Z,27.07
2022-08-05T15:47:01.604Z,27.08
2022-08-05T15:49:48.215Z,27.41
2022-08-05T15:52:51.826Z,27.88
2022-08-05T15:55:16.088Z,28.04
2022-08-05T15:57:45.108Z,27.17
2022-08-05T16:00:16.806Z,28.07
2022-08-05T16:02:53.767Z,28.17
2022-08-05T16:05:22.943Z,28.19
2022-08-05T16:07:57.173Z,28.59
2022-08-05T16:10:25.493Z,28.82
2022-08-05T16:12:55.915Z,28.64
2022-08-05T16:15:24.656Z,28.47
2022-08-05T16:18:00.467Z,28.99
2022-08-05T16:20:31.627Z,28.78
2022-08-05T16:23:00.069Z,29.25
2022-08-05T16:25:34.718Z,29.08
2022-08-05T16:28:06.645Z,28.74
2022-08-05T16:30:38.583Z,28.95
2022-08-05T16:33:06.366Z,28.64
2022-08-05T16:35:42.081Z,29.23
2022-08-05T16:38:23.769Z,28.98
2022-08-05T16:41:00.068Z,28.98
2022-08-05T16:43:36.126Z,30.72
2022-08-05T16:46:23.885Z,30.63
2022-08-05T16:48:52.852Z,29.94
2022-08-05T16:51:20.789Z,29.61
2022-08-05T16:54:06.270Z,30.43
2022-08-05T16:56:36.903Z,30.43
2022-08-05T16:59:10.219Z,30.78
2022-08-05T17:01:53.671Z,31.16
2022-08-05T17:04:27.755Z,31.62
2022-08-05T17:07:03.605Z,31.13
2022-08-05T17:09:58.030Z,32.72
2022-08-05T17:12:51.657Z,31.88
2022-08-05T17:15:15.503Z,32.29
2022-08-05T17:17:55.015Z,31.88
2022-08-05T17:20:25.077Z,32.11
2022-08-05T17:22:55.391Z,31.99
2022-08-05T17:25:48.697Z,31.86
2022-08-05T17:28:16.844Z,31.85
2022-08-05T17:30:51.764Z,31.48
2022-08-05T17:33:28.465Z,31.70
2022-08-05T17:36:32.847Z,31.73
2022-08-05T17:38:57.394Z,32.27
2022-08-05T17:42:17.650Z,32.84
2022-08-05T17:44:14.500Z,33.71
2022-08-05T17:46:45.286Z,32.85
2022-08-05T17:49:15.654Z,32.67
2022-08-05T17:51:43.704Z,32.97
2022-08-05T17:54:14.374Z,32.58
2022-08-05T17:56:53.709Z,33.34
2022-08-05T17:59:24.247Z,33.04
2022-08-05T18:01:53.341Z,33.46
2022-08-05T18:04:27.787Z,33.48
2022-08-05T18:06:55.702Z,34.13
2022-08-05T18:09:59.015Z,34.80
2022-08-05T18:12:27.109Z,34.61
2022-08-05T18:14:56.117Z,35.16
2022-08-05T18:18:00.796Z,35.14
2022-08-05T18:20:14.877Z,35.94
2022-08-05T18:22:53.883Z,35.17
2022-08-05T18:25:23.339Z,36.57
2022-08-05T18:27:52.848Z,36.40
2022-08-05T18:30:20.503Z,36.53
2022-08-05T18:32:53.694Z,36.66
2022-08-05T18:36:00.960Z,36.96
2022-08-05T18:38:19.288Z,37.05
2022-08-05T18:41:53.374Z,37.25
2022-08-05T18:43:43.069Z,38.78
2022-08-05T18:46:19.916Z,39.17
2022-08-05T18:48:52.459Z,39.17
2022-08-05T18:52:04.016Z,38.92
2022-08-05T18:54:31.315Z,39.40
2022-08-05T18:57:01.338Z,39.89
2022-08-05T18:59:43.212Z,39.94
2022-08-05T19:02:27.153Z,40.33
2022-08-05T19:05:03.251Z,39.94
2022-08-05T19:07:50.794Z,40.28
2022-08-05T19:10:28.162Z,41.19
2022-08-05T19:12:57.470Z,41.43
2022-08-05T19:15:58.046Z,41.38
2022-08-05T19:18:22.209Z,41.87
2022-08-05T19:20:52.583Z,42.46
2022-08-05T19:24:05.011Z,42.96
2022-08-05T19:26:09.536Z,42.69
2022-08-05T19:28:47.066Z,42.92
2022-08-05T19:31:17.930Z,43.02
2022-08-05T19:33:48.176Z,43.63
2022-08-05T19:36:26.749Z,42.73
2022-08-05T19:39:01.197Z,42.80
2022-08-05T19:41:58.033Z,42.79
2022-08-05T19:44:19.507Z,42.85
2022-08-05T19:46:47.674Z,43.28
2022-08-05T19:49:18.336Z,43.43
2022-08-05T19:52:08.661Z,43.04
2022-08-05T19:54:36.920Z,42.66
2022-08-05T19:57:09.168Z,42.96
2022-08-05T19:59:55.369Z,42.88
2022-08-05T20:02:31.362Z,42.31
2022-08-05T20:04:59.993Z,42.55
2022-08-05T20:07:38.925Z,42.95
2022-08-05T20:10:22.169Z,42.78
2022-08-05T20:12:50.187Z,43.28
2022-08-05T20:15:23.354Z,43.53
2022-08-05T20:18:32.635Z,42.68
2022-08-05T20:20:57.884Z,42.38
2022-08-05T20:23:39.269Z,42.34
2022-08-05T20:26:24.656Z,42.04
2022-08-05T20:28:58.070Z,43.06
2022-08-05T20:31:42.191Z,43.41
2022-08-05T20:34:17.911Z,43.22
2022-08-05T20:36:45.798Z,43.57
2022-08-05T20:39:16.674Z,43.59
2022-08-05T20:41:47.721Z,43.71
2022-08-05T20:44:29.674Z,44.76
2022-08-05T20:47:03.377Z,44.72
2022-08-05T20:49:37.855Z,45.08
2022-08-05T20:52:07.953Z,45.83
2022-08-05T20:54:43.308Z,46.03
2022-08-05T20:57:43.560Z,45.39
2022-08-05T21:00:34.886Z,45.70
2022-08-05T21:03:07.284Z,45.55
2022-08-05T21:05:53.625Z,45.57
2022-08-05T21:08:26.617Z,45.40
2022-08-05T21:11:09.305Z,46.48
2022-08-05T21:13:55.632Z,45.72
2022-08-05T21:16:29.904Z,45.98
2022-08-05T21:19:03.452Z,45.42
2022-08-05T21:21:44.016Z,45.51
2022-08-05T21:24:19.531Z,45.22
2022-08-05T21:26:56.181Z,46.07
2022-08-05T21:29:32.187Z,46.09
2022-08-05T21:32:02.795Z,45.51
2022-08-05T21:34:33.043Z,45.36
2022-08-05T21:37:05.114Z,47.50
2022-08-05T21:39:34.793Z,47.87
2022-08-05T21:42:29.120Z,47.44
2022-08-05T21:44:58.794Z,47.40
2022-08-05T21:47:54.713Z,48.41
2022-08-05T21:50:16.301Z,47.58
2022-08-05T21:52:47.420Z,48.16
2022-08-05T21:55:42.891Z,48.33
2022-08-05T21:58:05.566Z,47.83
2022-08-05T22:00:34.524Z,47.06
2022-08-05T22:03:04.529Z,47.00
2022-08-05T22:05:48.430Z,46.42
2022-08-05T22:08:24.336Z,46.23
2022-08-05T22:10:55.494Z,45.24
2022-08-05T22:14:19.827Z,44.94
2022-08-05T22:16:39.606Z,44.01
2022-08-05T22:19:02.328Z,43.95
2022-08-05T22:21:31.811Z,42.96
2022-08-05T22:24:40.284Z,42.80
2022-08-05T22:27:26.522Z,41.95
2022-08-05T22:30:17.122Z,42.26
2022-08-05T22:32:45.284Z,40.77
2022-08-05T22:35:14.163Z,40.96
2022-08-05T22:37:58.717Z,41.14
2022-08-05T22:40:30.788Z,40.35
2022-08-05T22:42:59.003Z,41.14
2022-08-05T22:45:26.902Z,40.47
2022-08-05T22:47:58.038Z,40.28
2022-08-05T22:50:27.685Z,40.51
2022-08-05T22:52:56.135Z,40.66
2022-08-05T22:55:26.059Z,40.04
2022-08-05T22:57:54.974Z,40.08
2022-08-05T23:00:24.280Z,40.00
2022-08-05T23:02:55.120Z,40.29
2022-08-05T23:05:24.358Z,39.97
2022-08-05T23:07:53.238Z,40.25
2022-08-05T23:10:23.856Z,40.40
2022-08-05T23:12:55.531Z,40.53
2022-08-05T23:15:35.308Z,40.50
2022-08-05T23:18:06.035Z,39.94
2022-08-05T23:20:40.036Z,40.28
2022-08-05T23:23:12.935Z,40.17
2022-08-05T23:25:52.003Z,41.09
2022-08-05T23:28:30.811Z,40.15
2022-08-05T23:31:15.853Z,39.70
2022-08-05T23:34:04.884Z,40.10
2022-08-05T23:36:38.575Z,39.68
2022-08-05T23:39:09.398Z,39.45
2022-08-05T23:42:53.596Z,40.31
2022-08-05T23:46:37.395Z,39.58
2022-08-05T23:50:22.394Z,39.87
2022-08-05T23:54:07.066Z,39.77
2022-08-05T23:57:54.122Z,39.74
